createdAt,value
2023-06-11T00:01:20.855Z,101013.19
2023-06-11T00:06:25.657Z,101004.69
2023-06-11T00:11:29.649Z,101017.13
2023-06-11T00:16:35.186Z,101012.53
2023-06-11T00:21:42.785Z,101039.41
2023-06-11T00:26:47.300Z,101031.00
2023-06-11T00:31:51.202Z,101030.59
2023-06-11T00:36:58.852Z,100998.78
2023-06-11T00:42:02.886Z,101039.66
2023-06-11T00:47:08.461Z,101042.97
2023-06-11T00:52:17.615Z,101048.28
2023-06-11T00:57:26.656Z,101050.53
2023-06-11T01:02:36.816Z,101038.47
2023-06-11T01:07:43.041Z,101053.63
2023-06-11T01:12:50.050Z,101045.31
2023-06-11T01:18:24.849Z,101051.09
2023-06-11T01:24:01.219Z,101055.50
2023-06-11T01:29:08.076Z,101057.72
2023-06-11T01:34:12.179Z,101051.63
2023-06-11T01:39:16.999Z,101063.59
2023-06-11T01:44:34.259Z,101057.16
2023-06-11T01:49:38.373Z,101058.47
2023-06-11T01:54:42.489Z,101063.25
2023-06-11T01:59:46.586Z,101064.84
2023-06-11T02:04:50.694Z,101072.81
2023-06-11T02:09:54.718Z,101045.28
2023-06-11T02:14:58.881Z,101068.06
2023-06-11T02:20:07.819Z,101067.16
2023-06-11T02:25:11.891Z,101087.69
2023-06-11T02:30:16.986Z,101082.94
2023-06-11T02:35:20.950Z,101088.28
2023-06-11T02:40:25.605Z,101081.59
2023-06-11T02:45:29.892Z,101078.25
2023-06-11T02:50:33.749Z,101073.41
2023-06-11T02:55:37.960Z,101085.19
2023-06-11T03:00:41.828Z,101069.25
2023-06-11T03:05:45.991Z,101074.47
2023-06-11T03:10:50.081Z,101073.56
2023-06-11T03:15:54.931Z,101081.69
2023-06-11T03:21:00.754Z,101080.47
2023-06-11T03:26:04.982Z,101078.38
2023-06-11T03:31:15.305Z,101082.59
2023-06-11T03:36:22.576Z,101090.81
2023-06-11T03:41:28.534Z,101083.06
2023-06-11T03:46:32.845Z,101061.59
2023-06-11T03:51:37.684Z,101089.47
2023-06-11T03:56:41.856Z,101079.56
2023-06-11T04:01:47.500Z,101098.72
2023-06-11T04:06:51.653Z,101104.06
2023-06-11T04:11:56.935Z,101095.75
2023-06-11T04:17:01.512Z,101102.59
2023-06-11T04:22:06.422Z,101089.91
2023-06-11T04:27:13.237Z,101090.69
2023-06-11T04:32:18.722Z,101081.06
2023-06-11T04:37:24.454Z,101088.78
2023-06-11T04:42:29.623Z,101089.28
2023-06-11T04:47:35.446Z,101091.31
2023-06-11T04:52:40.795Z,101079.78
2023-06-11T04:57:45.025Z,101082.22
2023-06-11T05:02:51.675Z,101100.38
2023-06-11T05:07:57.491Z,101086.81
2023-06-11T05:13:01.691Z,101079.28
2023-06-11T05:18:08.005Z,101077.75
2023-06-11T05:23:12.084Z,101075.41
2023-06-11T05:28:17.540Z,101076.91
2023-06-11T05:33:28.062Z,101069.41
2023-06-11T05:38:33.516Z,101067.09
2023-06-11T05:43:38.371Z,101057.53
2023-06-11T05:48:43.614Z,101061.03
2023-06-11T05:53:50.048Z,101051.31
2023-06-11T05:58:54.103Z,101037.81
2023-06-11T06:03:58.575Z,101037.34
2023-06-11T06:09:02.862Z,101004.94
2023-06-11T06:14:08.252Z,101034.97
2023-06-11T06:19:13.367Z,101031.41
2023-06-11T06:24:17.546Z,101021.69
2023-06-11T06:29:22.701Z,101018.34
2023-06-11T06:34:28.006Z,101011.22
2023-06-11T06:39:32.191Z,101010.22
2023-06-11T06:44:38.774Z,100994.53
2023-06-11T06:49:42.901Z,101007.97
2023-06-11T06:54:47.056Z,100997.00
2023-06-11T06:59:51.299Z,100995.31
2023-06-11T07:04:55.541Z,100995.91
2023-06-11T07:09:59.778Z,100987.50
2023-06-11T07:15:03.917Z,100995.19
2023-06-11T07:20:10.559Z,100984.75
2023-06-11T07:25:15.126Z,100977.66
2023-06-11T07:30:19.738Z,100973.75
2023-06-11T07:35:25.333Z,100963.78
2023-06-11T07:40:30.295Z,100958.00
2023-06-11T07:45:34.363Z,100943.59
2023-06-11T07:50:39.508Z,100944.03
2023-06-11T07:55:43.993Z,100938.44
2023-06-11T08:00:48.110Z,100940.34
2023-06-11T08:05:52.400Z,100938.94
2023-06-11T08:10:56.512Z,100929.78
2023-06-11T08:16:00.885Z,100895.34
2023-06-11T08:21:07.318Z,100909.38
2023-06-11T08:26:11.183Z,100900.00
2023-06-11T08:31:16.668Z,100906.16
2023-06-11T08:36:23.387Z,100904.97
2023-06-11T08:41:28.519Z,100899.75
2023-06-11T08:46:38.389Z,100896.66
2023-06-11T08:51:42.769Z,100871.03
2023-06-11T08:56:47.158Z,100885.38
2023-06-11T09:01:53.323Z,100886.16
2023-06-11T09:07:02.868Z,100885.47
2023-06-11T09:12:10.362Z,100866.59
2023-06-11T09:17:18.007Z,100877.91
2023-06-11T09:22:28.830Z,100874.03
2023-06-11T09:27:33.340Z,100866.50
2023-06-11T09:32:45.181Z,100864.09
2023-06-11T09:37:52.756Z,100859.13
2023-06-11T09:42:57.767Z,100853.41
2023-06-11T09:48:02.209Z,100851.66
2023-06-11T09:53:06.476Z,100855.34
2023-06-11T09:58:12.161Z,100847.47
2023-06-11T10:03:16.489Z,100838.59
2023-06-11T10:08:25.157Z,100828.06
2023-06-11T10:13:33.680Z,100835.56
2023-06-11T10:18:37.991Z,100819.78
2023-06-11T10:23:43.954Z,100830.25
2023-06-11T10:28:59.015Z,100824.84
2023-06-11T10:34:06.982Z,100825.50
2023-06-11T10:39:32.944Z,100823.13
2023-06-11T10:44:43.022Z,100798.19
2023-06-11T10:49:47.031Z,100806.75
2023-06-11T10:54:52.256Z,100821.78
2023-06-11T10:59:57.049Z,100820.44
2023-06-11T11:05:01.182Z,100808.88
2023-06-11T11:10:08.744Z,100820.31
2023-06-11T11:15:16.096Z,100819.59
2023-06-11T11:20:21.617Z,100819.31
2023-06-11T11:25:30.106Z,100825.41
2023-06-11T11:30:34.641Z,100815.00
2023-06-11T11:35:50.819Z,100820.25
2023-06-11T11:40:59.336Z,100819.03
2023-06-11T11:46:03.384Z,100829.19
2023-06-11T11:51:10.515Z,100835.44
2023-06-11T11:56:14.949Z,100827.81
2023-06-11T12:01:24.476Z,100828.44
2023-06-11T12:06:29.589Z,100832.06
2023-06-11T12:11:33.720Z,100824.78
2023-06-11T12:16:41.803Z,100802.03
2023-06-11T12:21:49.071Z,100806.72
2023-06-11T12:26:54.167Z,100833.63
2023-06-11T12:31:58.077Z,100829.88
2023-06-11T12:37:03.184Z,100833.09
2023-06-11T12:42:08.161Z,100835.69
2023-06-11T12:47:12.289Z,100817.75
2023-06-11T12:52:17.350Z,100792.38
2023-06-11T12:57:21.581Z,100804.97
2023-06-11T13:02:25.601Z,100817.47
2023-06-11T13:07:30.447Z,100815.75
2023-06-11T13:12:34.567Z,100812.25
2023-06-11T13:17:38.683Z,100817.66
2023-06-11T13:22:42.696Z,100809.09
2023-06-11T13:27:46.953Z,100775.34
2023-06-11T13:32:51.268Z,100817.00
2023-06-11T13:37:55.910Z,100820.22
2023-06-11T13:43:00.151Z,100813.31
2023-06-11T13:48:14.636Z,100815.06
2023-06-11T13:53:20.618Z,100828.81
2023-06-11T13:58:24.945Z,100824.47
2023-06-11T14:03:29.031Z,100810.94
2023-06-11T14:08:33.072Z,100811.53
2023-06-11T14:13:37.105Z,100820.25
2023-06-11T14:18:44.436Z,100808.78
2023-06-11T14:23:49.283Z,100815.16
2023-06-11T14:28:54.169Z,100812.09
2023-06-11T14:33:58.539Z,100802.75
2023-06-11T14:39:03.309Z,100808.22
2023-06-11T14:44:07.544Z,100809.41
2023-06-11T14:49:13.177Z,100811.81
2023-06-11T14:54:18.138Z,100817.41
2023-06-11T14:59:22.297Z,100815.31
2023-06-11T15:04:26.530Z,100814.72
2023-06-11T15:09:31.776Z,100789.66
2023-06-11T15:14:36.595Z,100813.28
2023-06-11T15:19:40.877Z,100806.78
2023-06-11T15:24:45.021Z,100817.41
2023-06-11T15:29:50.438Z,100817.31
2023-06-11T15:34:54.369Z,100826.03
2023-06-11T15:40:02.074Z,100804.31
2023-06-11T15:45:10.343Z,100829.22
2023-06-11T15:50:14.912Z,100831.78
2023-06-11T15:55:19.377Z,100831.53
2023-06-11T16:00:23.341Z,100828.34
2023-06-11T16:05:27.583Z,100834.91
2023-06-11T16:10:31.947Z,100841.50
2023-06-11T16:15:36.142Z,100827.47
2023-06-11T16:20:40.421Z,100842.34
2023-06-11T16:25:46.524Z,100845.59
2023-06-11T16:30:51.029Z,100842.75
2023-06-11T16:35:55.052Z,100842.09
2023-06-11T16:40:59.378Z,100850.47
2023-06-11T16:46:03.663Z,100821.53
2023-06-11T16:51:07.768Z,100824.94
2023-06-11T16:56:11.896Z,100836.13
2023-06-11T17:01:15.906Z,100836.09
2023-06-11T17:06:20.131Z,100830.44
2023-06-11T17:11:24.112Z,100845.16
2023-06-11T17:16:28.320Z,100832.38
2023-06-11T17:21:32.393Z,100833.59
2023-06-11T17:26:36.876Z,100831.69
2023-06-11T17:31:41.090Z,100834.06
2023-06-11T17:36:45.097Z,100827.97
2023-06-11T17:41:49.225Z,100821.78
2023-06-11T17:46:53.576Z,100822.72
2023-06-11T17:51:57.527Z,100804.09
2023-06-11T17:57:01.883Z,100808.38
2023-06-11T18:02:06.802Z,100806.31
2023-06-11T18:07:10.895Z,100808.16
2023-06-11T18:12:14.792Z,100806.34
2023-06-11T18:17:22.765Z,100798.31
2023-06-11T18:22:29.158Z,100802.56
2023-06-11T18:27:33.488Z,100812.66
2023-06-11T18:32:39.123Z,100799.56
2023-06-11T18:37:43.233Z,100803.25
2023-06-11T18:42:47.233Z,100802.56
2023-06-11T18:47:51.808Z,100789.66
2023-06-11T18:52:55.993Z,100777.72
2023-06-11T18:58:00.334Z,100788.00
2023-06-11T19:03:05.619Z,100783.00
2023-06-11T19:08:11.125Z,100783.66
2023-06-11T19:13:19.705Z,100782.31
2023-06-11T19:18:23.697Z,100774.66
2023-06-11T19:23:28.920Z,100772.69
2023-06-11T19:28:33.398Z,100769.56
2023-06-11T19:33:37.346Z,100767.38
2023-06-11T19:38:41.424Z,100764.44
2023-06-11T19:43:45.312Z,100762.34
2023-06-11T19:48:52.821Z,100755.03
2023-06-11T19:53:58.968Z,100747.63
2023-06-11T19:59:03.285Z,100725.13
2023-06-11T20:04:08.376Z,100728.78
2023-06-11T20:09:12.548Z,100738.78
2023-06-11T20:14:16.642Z,100727.69
2023-06-11T20:19:21.040Z,100718.59
2023-06-11T20:24:27.724Z,100720.59
2023-06-11T20:29:32.318Z,100708.88
2023-06-11T20:34:39.047Z,100709.44
2023-06-11T20:39:43.207Z,100709.03
2023-06-11T20:44:47.138Z,100705.25
2023-06-11T20:49:53.897Z,100671.22
2023-06-11T20:54:57.839Z,100698.31
2023-06-11T21:00:02.359Z,100699.50
2023-06-11T21:05:09.121Z,100691.06
2023-06-11T21:10:13.354Z,100690.50
2023-06-11T21:15:18.835Z,100683.88
2023-06-11T21:20:22.993Z,100685.13
2023-06-11T21:25:26.900Z,100649.53
2023-06-11T21:30:31.072Z,100703.94
2023-06-11T21:35:35.094Z,100713.53
2023-06-11T21:40:39.233Z,100709.34
2023-06-11T21:45:43.404Z,100708.72
2023-06-11T21:50:47.629Z,100703.97
2023-06-11T21:55:51.725Z,100702.13
2023-06-11T22:00:55.663Z,100663.63
2023-06-11T22:06:00.553Z,100696.00
2023-06-11T22:11:08.201Z,100665.19
2023-06-11T22:16:14.739Z,100688.75
2023-06-11T22:21:19.032Z,100672.34
2023-06-11T22:26:23.437Z,100673.19
2023-06-11T22:31:27.877Z,100675.13
2023-06-11T22:36:32.035Z,100669.81
2023-06-11T22:41:35.900Z,100670.69
2023-06-11T22:46:40.038Z,100669.47
2023-06-11T22:51:45.108Z,100670.63
2023-06-11T22:56:48.976Z,100662.56
2023-06-11T23:01:53.172Z,100651.69
2023-06-11T23:06:57.602Z,100647.19
2023-06-11T23:12:01.677Z,100638.34
2023-06-11T23:17:10.936Z,100640.50
2023-06-11T23:22:16.166Z,100629.47
2023-06-11T23:27:23.380Z,100618.22
2023-06-11T23:32:28.119Z,100615.53
2023-06-11T23:37:32.218Z,100634.59
2023-06-11T23:42:36.249Z,100618.94
2023-06-11T23:47:40.291Z,100621.50
2023-06-11T23:52:44.795Z,100620.63
2023-06-11T23:58:17.392Z,100620.91
